createdAt,value
2019-06-01T00:01:48.813Z,16.90
2019-06-01T00:04:17.730Z,16.90
2019-06-01T00:06:46.956Z,16.90
2019-06-01T00:09:15.833Z,16.90
2019-06-01T00:11:45.520Z,16.80
2019-06-01T00:14:14.403Z,16.80
2019-06-01T00:16:44.015Z,16.80
2019-06-01T00:19:13.017Z,16.80
2019-06-01T00:21:41.640Z,16.80
2019-06-01T00:24:10.252Z,16.80
2019-06-01T00:26:38.969Z,16.80
2019-06-01T00:29:07.580Z,16.80
2019-06-01T00:31:36.246Z,16.80
2019-06-01T00:34:04.894Z,16.70
2019-06-01T00:36:33.575Z,16.70
2019-06-01T00:39:02.183Z,16.60
2019-06-01T00:41:30.820Z,16.60
2019-06-01T00:43:59.487Z,16.60
2019-06-01T00:46:28.108Z,16.60
2019-06-01T00:48:56.813Z,16.60
2019-06-01T00:51:25.509Z,16.40
2019-06-01T00:53:54.185Z,16.40
2019-06-01T00:56:22.807Z,16.30
2019-06-01T00:58:51.973Z,16.20
2019-06-01T01:01:20.771Z,16.20
2019-06-01T01:03:50.182Z,16.20
2019-06-01T01:06:18.951Z,16.20
2019-06-01T01:08:48.893Z,16.20
2019-06-01T01:11:17.731Z,16.20
2019-06-01T01:13:47.170Z,16.30
2019-06-01T01:16:15.915Z,16.30
2019-06-01T01:18:45.621Z,16.30
2019-06-01T01:21:14.422Z,16.30
2019-06-01T01:23:43.063Z,16.30
2019-06-01T01:26:11.781Z,16.30
2019-06-01T01:28:40.505Z,16.30
2019-06-01T01:31:13.917Z,16.30
2019-06-01T01:33:39.416Z,16.30
2019-06-01T01:36:08.032Z,16.30
2019-06-01T01:38:36.703Z,16.30
2019-06-01T01:41:05.317Z,16.30
2019-06-01T01:43:33.964Z,16.10
2019-06-01T01:46:02.943Z,16.00
2019-06-01T01:48:31.655Z,16.00
2019-06-01T01:51:00.291Z,15.90
2019-06-01T01:53:28.894Z,15.90
2019-06-01T01:55:57.579Z,15.90
2019-06-01T01:58:26.205Z,15.80
2019-06-01T02:00:56.412Z,15.80
2019-06-01T02:03:25.224Z,15.80
2019-06-01T02:05:54.927Z,15.90
2019-06-01T02:08:23.779Z,15.90
2019-06-01T02:10:53.285Z,15.90
2019-06-01T02:13:22.270Z,15.90
2019-06-01T02:15:52.236Z,15.90
2019-06-01T02:18:21.030Z,16.00
2019-06-01T02:20:49.647Z,16.00
2019-06-01T02:23:18.324Z,16.00
2019-06-01T02:25:46.941Z,16.00
2019-06-01T02:28:15.641Z,16.00
2019-06-01T02:30:44.266Z,16.00
2019-06-01T02:33:12.956Z,16.00
2019-06-01T02:35:41.563Z,16.10
2019-06-01T02:38:10.243Z,16.10
2019-06-01T02:40:38.865Z,16.00
2019-06-01T02:43:07.500Z,16.00
2019-06-01T02:45:36.178Z,15.90
2019-06-01T02:48:06.279Z,15.90
2019-06-01T02:50:35.473Z,15.90
2019-06-01T02:53:04.164Z,15.80
2019-06-01T02:55:32.804Z,15.70
2019-06-01T02:58:02.402Z,15.70
2019-06-01T03:00:49.066Z,15.60
2019-06-01T03:03:18.136Z,15.50
2019-06-01T03:05:47.035Z,15.50
2019-06-01T03:08:16.442Z,15.40
2019-06-01T03:10:45.796Z,15.40
2019-06-01T03:13:15.923Z,15.40
2019-06-01T03:15:45.065Z,15.50
2019-06-01T03:18:14.038Z,15.40
2019-06-01T03:20:44.183Z,15.40
2019-06-01T03:23:14.304Z,15.30
2019-06-01T03:25:44.406Z,15.30
2019-06-01T03:28:15.073Z,15.40
2019-06-01T03:30:45.345Z,15.40
2019-06-01T03:33:14.507Z,15.40
2019-06-01T03:35:43.348Z,15.50
2019-06-01T03:38:12.093Z,15.50
2019-06-01T03:40:40.712Z,15.60
2019-06-01T03:43:09.459Z,15.60
2019-06-01T03:45:38.127Z,15.60
2019-06-01T03:48:06.885Z,15.70
2019-06-01T03:50:35.545Z,15.70
2019-06-01T03:53:04.291Z,15.70
2019-06-01T03:55:32.924Z,15.80
2019-06-01T03:58:02.910Z,15.80
2019-06-01T04:00:31.620Z,15.80
2019-06-01T04:03:00.833Z,15.90
2019-06-01T04:05:29.586Z,15.90
2019-06-01T04:07:58.240Z,16.00
2019-06-01T04:10:26.907Z,16.00
2019-06-01T04:12:55.556Z,16.10
2019-06-01T04:15:24.200Z,16.20
2019-06-01T04:17:52.846Z,16.10
2019-06-01T04:20:21.485Z,16.20
2019-06-01T04:22:50.310Z,16.30
2019-06-01T04:25:18.978Z,16.30
2019-06-01T04:27:47.658Z,16.40
2019-06-01T04:30:16.395Z,16.50
2019-06-01T04:32:49.753Z,16.60
2019-06-01T04:35:15.344Z,16.70
2019-06-01T04:37:43.974Z,16.80
2019-06-01T04:40:13.670Z,16.90
2019-06-01T04:42:42.362Z,16.90
2019-06-01T04:45:12.507Z,17.00
2019-06-01T04:47:41.282Z,17.10
2019-06-01T04:50:11.019Z,17.20
2019-06-01T04:52:39.826Z,17.40
2019-06-01T04:55:09.066Z,17.40
2019-06-01T04:57:37.811Z,17.50
2019-06-01T05:00:12.559Z,17.60
2019-06-01T05:02:36.867Z,17.70
2019-06-01T05:05:07.076Z,17.70
2019-06-01T05:07:35.859Z,17.90
2019-06-01T05:10:05.183Z,17.90
2019-06-01T05:12:33.882Z,18.10
2019-06-01T05:15:02.589Z,18.20
2019-06-01T05:17:31.215Z,18.30
2019-06-01T05:19:59.892Z,18.30
2019-06-01T05:22:28.508Z,18.40
2019-06-01T05:24:57.176Z,18.50
2019-06-01T05:27:25.834Z,18.70
2019-06-01T05:29:54.464Z,18.80
2019-06-01T05:32:23.130Z,18.80
2019-06-01T05:34:51.860Z,18.90
2019-06-01T05:37:20.520Z,19.00
2019-06-01T05:39:49.139Z,19.10
2019-06-01T05:42:18.885Z,19.20
2019-06-01T05:44:47.605Z,19.30
2019-06-01T05:47:16.320Z,19.50
2019-06-01T05:49:44.896Z,19.60
2019-06-01T05:52:14.467Z,19.70
2019-06-01T05:54:43.228Z,19.90
2019-06-01T05:57:12.658Z,20.00
2019-06-01T05:59:41.456Z,20.00
2019-06-01T06:02:11.094Z,20.10
2019-06-01T06:04:39.862Z,20.20
2019-06-01T06:07:08.505Z,20.40
2019-06-01T06:09:37.205Z,20.50
2019-06-01T06:12:05.798Z,20.60
2019-06-01T06:14:34.458Z,20.70
2019-06-01T06:17:03.117Z,20.80
2019-06-01T06:19:31.750Z,20.90
2019-06-01T06:22:00.376Z,20.90
2019-06-01T06:24:29.050Z,21.00
2019-06-01T06:26:57.679Z,21.10
2019-06-01T06:29:26.383Z,21.10
2019-06-01T06:31:54.996Z,21.30
2019-06-01T06:34:23.702Z,21.30
2019-06-01T06:36:52.404Z,21.30
2019-06-01T06:39:22.004Z,21.30
2019-06-01T06:41:50.775Z,21.50
2019-06-01T06:44:20.511Z,21.70
2019-06-01T06:46:49.374Z,21.90
2019-06-01T06:49:19.078Z,21.90
2019-06-01T06:51:47.894Z,21.80
2019-06-01T06:54:17.629Z,21.70
2019-06-01T06:56:46.468Z,21.70
2019-06-01T06:59:16.117Z,21.70
2019-06-01T07:01:44.990Z,21.80
2019-06-01T07:04:13.622Z,21.90
2019-06-01T07:06:42.292Z,22.00
2019-06-01T07:09:10.923Z,22.10
2019-06-01T07:11:39.597Z,22.20
2019-06-01T07:14:08.220Z,22.20
2019-06-01T07:16:36.887Z,22.40
2019-06-01T07:19:05.541Z,22.50
2019-06-01T07:21:34.296Z,22.60
2019-06-01T07:24:02.909Z,22.70
2019-06-01T07:26:32.365Z,22.80
2019-06-01T07:29:01.147Z,22.90
2019-06-01T07:31:30.037Z,22.90
2019-06-01T07:33:58.673Z,23.00
2019-06-01T07:36:28.609Z,23.10
2019-06-01T07:38:57.384Z,23.10
2019-06-01T07:41:26.678Z,23.10
2019-06-01T07:43:55.385Z,23.10
2019-06-01T07:46:24.884Z,23.10
2019-06-01T07:48:53.565Z,23.20
2019-06-01T07:51:23.213Z,23.30
2019-06-01T07:53:52.042Z,23.30
2019-06-01T07:56:22.496Z,23.30
2019-06-01T07:58:51.293Z,23.30
2019-06-01T08:01:19.939Z,23.40
2019-06-01T08:03:48.566Z,23.50
2019-06-01T08:06:17.250Z,23.60
2019-06-01T08:08:45.877Z,23.70
2019-06-01T08:11:14.560Z,23.70
2019-06-01T08:13:43.228Z,23.70
2019-06-01T08:16:11.868Z,23.70
2019-06-01T08:18:40.490Z,23.70
2019-06-01T08:21:09.155Z,23.80
2019-06-01T08:23:37.765Z,23.90
2019-06-01T08:26:06.459Z,24.00
2019-06-01T08:28:35.123Z,24.10
2019-06-01T08:31:04.306Z,24.20
2019-06-01T08:33:34.834Z,24.20
2019-06-01T08:36:03.191Z,24.30
2019-06-01T08:38:31.862Z,24.40
2019-06-01T08:41:00.491Z,24.30
2019-06-01T08:43:29.729Z,24.40
2019-06-01T08:45:58.510Z,24.50
2019-06-01T08:48:27.714Z,24.60
2019-06-01T08:50:56.400Z,24.60
2019-06-01T08:53:25.799Z,24.60
2019-06-01T08:55:54.500Z,24.70
2019-06-01T08:58:24.171Z,24.70
2019-06-01T09:00:52.922Z,24.70
2019-06-01T09:03:21.670Z,24.80
2019-06-01T09:05:50.290Z,24.90
2019-06-01T09:08:18.984Z,25.10
2019-06-01T09:10:47.614Z,25.20
2019-06-01T09:13:16.279Z,25.20
2019-06-01T09:15:44.899Z,25.30
2019-06-01T09:18:13.545Z,25.40
2019-06-01T09:20:42.199Z,25.50
2019-06-01T09:23:10.909Z,25.60
2019-06-01T09:25:39.546Z,25.80
2019-06-01T09:28:08.289Z,25.90
2019-06-01T09:30:36.978Z,26.00
2019-06-01T09:33:05.628Z,26.20
2019-06-01T09:35:52.758Z,26.30
2019-06-01T09:38:04.568Z,26.20
2019-06-01T09:40:33.818Z,26.30
2019-06-01T09:43:03.695Z,26.50
2019-06-01T09:45:33.061Z,26.70
2019-06-01T09:48:02.674Z,26.90
2019-06-01T09:50:31.398Z,27.00
2019-06-01T09:52:59.992Z,27.10
2019-06-01T09:55:29.419Z,27.20
2019-06-01T09:57:59.107Z,27.40
2019-06-01T10:00:28.324Z,27.50
2019-06-01T10:02:56.993Z,27.70
2019-06-01T10:05:25.659Z,27.80
2019-06-01T10:07:54.299Z,27.90
2019-06-01T10:10:23.006Z,28.00
2019-06-01T10:12:52.020Z,28.10
2019-06-01T10:15:20.727Z,28.20
2019-06-01T10:17:49.395Z,28.30
2019-06-01T10:20:18.173Z,28.30
2019-06-01T10:22:46.876Z,28.30
2019-06-01T10:25:15.538Z,28.40
2019-06-01T10:27:44.213Z,28.60
2019-06-01T10:30:12.879Z,28.60
2019-06-01T10:32:42.144Z,28.60
2019-06-01T10:35:11.207Z,28.60
2019-06-01T10:37:40.044Z,28.70
2019-06-01T10:40:08.847Z,28.80
2019-06-01T10:42:38.066Z,29.00
2019-06-01T10:45:07.530Z,29.20
2019-06-01T10:47:36.270Z,29.30
2019-06-01T10:50:05.901Z,29.30
2019-06-01T10:52:34.593Z,29.20
2019-06-01T10:55:03.323Z,29.20
2019-06-01T10:57:32.311Z,29.20
2019-06-01T11:00:01.527Z,29.30
2019-06-01T11:02:30.880Z,29.60
2019-06-01T11:04:59.590Z,29.70
2019-06-01T11:07:29.114Z,29.80
2019-06-01T11:09:57.809Z,29.70
2019-06-01T11:12:26.502Z,29.70
2019-06-01T11:14:55.344Z,29.50
2019-06-01T11:17:24.253Z,29.40
2019-06-01T11:19:53.024Z,29.40
2019-06-01T11:22:21.669Z,29.50
2019-06-01T11:24:50.308Z,29.60
2019-06-01T11:27:18.926Z,29.60
2019-06-01T11:29:51.453Z,29.60
2019-06-01T11:32:18.050Z,29.60
2019-06-01T11:34:46.730Z,29.70
2019-06-01T11:37:16.015Z,29.70
2019-06-01T11:39:45.195Z,29.70
2019-06-01T11:42:13.874Z,29.70
2019-06-01T11:44:42.816Z,29.60
2019-06-01T11:47:11.722Z,29.30
2019-06-01T11:49:40.805Z,29.30
2019-06-01T11:52:10.665Z,29.40
2019-06-01T11:54:39.813Z,29.50
2019-06-01T11:57:08.674Z,29.60
2019-06-01T11:59:37.470Z,29.70
2019-06-01T12:02:06.161Z,29.50
2019-06-01T12:04:35.750Z,29.50
2019-06-01T12:07:16.993Z,29.50
2019-06-01T12:09:35.755Z,29.50
2019-06-01T12:12:04.695Z,29.50
2019-06-01T12:14:36.201Z,29.60
2019-06-01T12:17:05.384Z,29.70
2019-06-01T12:19:34.983Z,29.70
2019-06-01T12:22:04.883Z,29.80
2019-06-01T12:24:35.097Z,29.80
2019-06-01T12:27:03.952Z,29.80
2019-06-01T12:29:32.644Z,29.80
2019-06-01T12:32:01.316Z,29.80
2019-06-01T12:34:30.003Z,29.70
2019-06-01T12:36:58.733Z,29.50
2019-06-01T12:39:27.379Z,29.40
2019-06-01T12:41:56.184Z,29.40
2019-06-01T12:44:24.846Z,29.50
2019-06-01T12:46:53.466Z,29.50
2019-06-01T12:49:22.125Z,29.60
2019-06-01T12:51:50.768Z,29.70
2019-06-01T12:54:19.407Z,29.80
2019-06-01T12:56:49.736Z,29.80
2019-06-01T12:59:18.389Z,29.90
2019-06-01T13:01:47.313Z,29.80
2019-06-01T13:04:16.175Z,29.90
2019-06-01T13:06:48.268Z,30.00
2019-06-01T13:09:15.064Z,30.00
2019-06-01T13:11:43.744Z,30.00
2019-06-01T13:14:12.360Z,30.00
2019-06-01T13:16:43.948Z,30.00
2019-06-01T13:19:11.283Z,29.90
2019-06-01T13:21:41.272Z,29.90
2019-06-01T13:24:10.067Z,29.70
2019-06-01T13:26:38.701Z,29.60
2019-06-01T13:29:07.357Z,29.60
2019-06-01T13:31:36.028Z,29.50
2019-06-01T13:34:04.750Z,29.50
2019-06-01T13:36:33.411Z,29.60
2019-06-01T13:39:02.016Z,29.60
2019-06-01T13:41:30.623Z,29.60
2019-06-01T13:43:59.363Z,29.80
2019-06-01T13:46:28.016Z,29.80
2019-06-01T13:48:56.672Z,29.80
2019-06-01T13:51:25.299Z,29.80
2019-06-01T13:53:54.631Z,29.80
2019-06-01T13:56:23.404Z,29.80
2019-06-01T13:58:52.409Z,29.80
2019-06-01T14:01:21.169Z,29.80
2019-06-01T14:03:52.070Z,29.80
2019-06-01T14:06:20.109Z,29.80
2019-06-01T14:08:49.060Z,29.70
2019-06-01T14:11:17.872Z,29.70
2019-06-01T14:13:47.454Z,29.70
2019-06-01T14:16:16.165Z,29.80
2019-06-01T14:18:45.634Z,29.80
2019-06-01T14:21:14.479Z,29.90
2019-06-01T14:23:43.096Z,29.70
2019-06-01T14:26:11.743Z,29.60
2019-06-01T14:28:40.496Z,29.50
2019-06-01T14:31:09.176Z,29.50
2019-06-01T14:33:38.018Z,29.50
2019-06-01T14:36:06.752Z,29.50
2019-06-01T14:38:46.625Z,29.50
2019-06-01T14:41:05.995Z,29.50
2019-06-01T14:43:34.814Z,29.50
2019-06-01T14:46:03.458Z,29.50
2019-06-01T14:48:32.159Z,29.60
2019-06-01T14:51:00.827Z,29.60
2019-06-01T14:53:29.447Z,29.60
2019-06-01T14:55:58.088Z,29.40
2019-06-01T14:58:26.734Z,29.40
2019-06-01T15:00:56.606Z,29.40
2019-06-01T15:03:25.401Z,29.30
2019-06-01T15:05:54.374Z,29.20
2019-06-01T15:08:23.187Z,29.20
2019-06-01T15:10:53.303Z,29.20
2019-06-01T15:13:22.150Z,29.30
2019-06-01T15:15:51.378Z,29.30
2019-06-01T15:18:20.147Z,29.30
2019-06-01T15:20:49.701Z,29.40
2019-06-01T15:23:18.449Z,29.40
2019-06-01T15:25:47.096Z,29.30
2019-06-01T15:28:15.743Z,29.30
2019-06-01T15:30:44.391Z,29.20
2019-06-01T15:33:13.047Z,29.10
2019-06-01T15:35:41.684Z,29.10
2019-06-01T15:38:10.361Z,29.10
2019-06-01T15:40:39.074Z,29.00
2019-06-01T15:43:07.705Z,29.00
2019-06-01T15:45:36.320Z,29.10
2019-06-01T15:48:04.987Z,29.10
2019-06-01T15:50:33.659Z,29.00
2019-06-01T15:53:03.407Z,29.00
2019-06-01T15:55:32.128Z,28.80
2019-06-01T15:58:00.792Z,28.80
2019-06-01T16:00:29.450Z,28.80
2019-06-01T16:02:58.959Z,28.70
2019-06-01T16:05:27.727Z,28.70
2019-06-01T16:07:57.102Z,28.70
2019-06-01T16:10:25.911Z,28.80
2019-06-01T16:12:55.332Z,28.70
2019-06-01T16:15:24.195Z,28.70
2019-06-01T16:17:53.694Z,28.70
2019-06-01T16:20:22.324Z,28.60
2019-06-01T16:22:50.990Z,28.60
2019-06-01T16:25:19.717Z,28.50
2019-06-01T16:27:48.351Z,28.50
2019-06-01T16:30:17.981Z,28.50
2019-06-01T16:32:46.643Z,28.40
2019-06-01T16:35:15.608Z,28.30
2019-06-01T16:37:44.315Z,28.30
2019-06-01T16:40:13.019Z,28.20
2019-06-01T16:42:41.695Z,28.20
2019-06-01T16:45:10.573Z,28.10
2019-06-01T16:47:39.223Z,28.00
2019-06-01T16:50:07.862Z,27.90
2019-06-01T16:52:36.510Z,27.90
2019-06-01T16:55:06.983Z,28.00
2019-06-01T16:57:36.050Z,28.00
2019-06-01T17:00:05.220Z,27.90
2019-06-01T17:02:33.908Z,27.90
2019-06-01T17:05:02.927Z,27.80
2019-06-01T17:07:31.637Z,27.80
2019-06-01T17:10:20.507Z,27.80
2019-06-01T17:12:30.895Z,27.80
2019-06-01T17:15:00.817Z,27.70
2019-06-01T17:17:29.760Z,27.70
2019-06-01T17:19:59.011Z,27.60
2019-06-01T17:22:27.789Z,27.60
2019-06-01T17:24:57.556Z,27.50
2019-06-01T17:27:26.300Z,27.50
2019-06-01T17:29:55.657Z,27.50
2019-06-01T17:32:24.927Z,27.50
2019-06-01T17:34:53.808Z,27.40
2019-06-01T17:37:22.540Z,27.40
2019-06-01T17:39:51.317Z,27.40
2019-06-01T17:42:20.164Z,27.40
2019-06-01T17:44:48.818Z,27.30
2019-06-01T17:47:18.142Z,27.20
2019-06-01T17:50:07.370Z,27.20
2019-06-01T17:52:36.422Z,27.10
2019-06-01T17:55:05.291Z,27.10
2019-06-01T17:57:34.020Z,27.10
2019-06-01T18:00:03.466Z,27.00
2019-06-01T18:02:32.618Z,27.00
2019-06-01T18:05:03.952Z,26.90
2019-06-01T18:07:33.428Z,26.80
2019-06-01T18:10:04.605Z,26.70
2019-06-01T18:12:34.619Z,26.60
2019-06-01T18:15:04.416Z,26.50
2019-06-01T18:17:34.809Z,26.50
2019-06-01T18:20:06.591Z,26.50
2019-06-01T18:22:36.902Z,26.50
2019-06-01T18:25:08.426Z,26.40
2019-06-01T18:27:38.854Z,26.30
2019-06-01T18:30:10.659Z,26.20
2019-06-01T18:32:41.373Z,26.10
2019-06-01T18:35:11.802Z,26.00
2019-06-01T18:37:42.005Z,25.90
2019-06-01T18:40:13.807Z,25.80
2019-06-01T18:42:45.212Z,25.70
2019-06-01T18:45:16.585Z,25.70
2019-06-01T18:47:47.351Z,25.60
2019-06-01T18:50:19.222Z,25.50
2019-06-01T18:52:50.507Z,25.50
2019-06-01T18:55:21.613Z,25.40
2019-06-01T18:57:53.542Z,25.30
2019-06-01T19:00:24.111Z,25.30
2019-06-01T19:02:54.818Z,25.20
2019-06-01T19:05:25.369Z,25.00
2019-06-01T19:07:55.901Z,24.90
2019-06-01T19:10:26.381Z,24.80
2019-06-01T19:12:57.062Z,24.60
2019-06-01T19:15:28.982Z,24.50
2019-06-01T19:17:59.801Z,24.50
2019-06-01T19:20:33.123Z,24.30
2019-06-01T19:23:02.424Z,24.20
2019-06-01T19:25:32.966Z,24.20
2019-06-01T19:28:03.498Z,24.10
2019-06-01T19:30:41.284Z,24.00
2019-06-01T19:33:15.461Z,23.90
2019-06-01T19:35:44.180Z,23.70
2019-06-01T19:38:15.452Z,23.50
2019-06-01T19:40:46.414Z,23.30
2019-06-01T19:43:17.692Z,23.10
2019-06-01T19:45:49.385Z,22.90
2019-06-01T19:48:19.935Z,22.70
2019-06-01T19:50:50.657Z,22.50
2019-06-01T19:53:24.858Z,22.40
2019-06-01T19:55:56.093Z,22.30
2019-06-01T19:58:26.636Z,22.20
2019-06-01T20:00:58.791Z,22.00
2019-06-01T20:03:30.880Z,21.90
2019-06-01T20:06:01.566Z,21.80
2019-06-01T20:08:32.130Z,21.80
2019-06-01T20:11:02.790Z,21.70
2019-06-01T20:13:33.960Z,21.60
2019-06-01T20:16:07.453Z,21.50
2019-06-01T20:18:38.073Z,21.40
2019-06-01T20:21:09.235Z,21.30
2019-06-01T20:23:39.807Z,21.30
2019-06-01T20:26:11.243Z,21.20
2019-06-01T20:28:41.834Z,21.20
2019-06-01T20:31:13.713Z,21.20
2019-06-01T20:33:44.830Z,21.20
2019-06-01T20:36:16.153Z,21.20
2019-06-01T20:38:47.018Z,21.20
2019-06-01T20:41:18.659Z,21.20
2019-06-01T20:43:49.396Z,21.20
2019-06-01T20:46:20.887Z,21.20
2019-06-01T20:48:51.763Z,21.20
2019-06-01T20:51:26.857Z,21.20
2019-06-01T20:53:54.351Z,21.20
2019-06-01T20:56:25.412Z,21.10
2019-06-01T20:58:56.109Z,21.00
2019-06-01T21:01:26.654Z,20.80
2019-06-01T21:03:57.124Z,20.50
2019-06-01T21:06:27.716Z,20.20
2019-06-01T21:08:58.610Z,19.90
2019-06-01T21:11:29.249Z,19.70
2019-06-01T21:13:59.799Z,19.60
2019-06-01T21:16:30.360Z,19.50
2019-06-01T21:19:00.855Z,19.40
2019-06-01T21:21:31.352Z,19.30
2019-06-01T21:24:01.520Z,19.20
2019-06-01T21:26:31.886Z,19.10
2019-06-01T21:29:02.127Z,19.00
2019-06-01T21:31:32.078Z,19.00
2019-06-01T21:34:02.303Z,19.00
2019-06-01T21:36:32.814Z,19.00
2019-06-01T21:39:02.853Z,18.90
2019-06-01T21:41:32.856Z,18.90
2019-06-01T21:44:02.999Z,18.80
2019-06-01T21:46:32.078Z,18.80
2019-06-01T21:49:01.611Z,18.70
2019-06-01T21:51:31.026Z,18.70
2019-06-01T21:53:59.859Z,18.70
2019-06-01T21:56:29.545Z,18.60
2019-06-01T21:58:58.425Z,18.60
2019-06-01T22:01:27.438Z,18.50
2019-06-01T22:03:56.184Z,18.40
2019-06-01T22:06:25.665Z,18.30
2019-06-01T22:08:54.607Z,18.20
2019-06-01T22:11:23.722Z,18.00
2019-06-01T22:13:52.358Z,18.00
2019-06-01T22:16:21.699Z,17.90
2019-06-01T22:18:50.426Z,17.80
2019-06-01T22:21:19.697Z,17.80
2019-06-01T22:23:48.509Z,17.90
2019-06-01T22:26:17.889Z,17.90
2019-06-01T22:28:46.666Z,17.90
2019-06-01T22:31:15.397Z,17.90
2019-06-01T22:33:44.138Z,17.90
2019-06-01T22:36:12.813Z,17.80
2019-06-01T22:38:41.436Z,17.80
2019-06-01T22:41:10.069Z,17.80
2019-06-01T22:43:46.156Z,17.70
2019-06-01T22:46:08.989Z,17.70
2019-06-01T22:48:37.714Z,17.70
2019-06-01T22:51:06.359Z,17.70
2019-06-01T22:53:35.067Z,17.60
2019-06-01T22:56:03.667Z,17.60
2019-06-01T22:58:32.325Z,17.50
2019-06-01T23:01:00.945Z,17.50
2019-06-01T23:03:30.226Z,17.40
2019-06-01T23:05:59.051Z,17.40
2019-06-01T23:08:27.710Z,17.40
2019-06-01T23:10:56.321Z,17.40
2019-06-01T23:13:26.134Z,17.30
2019-06-01T23:15:54.881Z,17.30
2019-06-01T23:18:23.650Z,17.30
2019-06-01T23:20:52.279Z,17.30
2019-06-01T23:23:22.258Z,17.20
2019-06-01T23:25:51.104Z,17.20
2019-06-01T23:28:19.693Z,17.20
2019-06-01T23:30:48.354Z,17.20
2019-06-01T23:33:16.937Z,17.20
2019-06-01T23:35:45.611Z,17.30
2019-06-01T23:38:14.203Z,17.30
2019-06-01T23:40:42.875Z,17.40
2019-06-01T23:43:11.475Z,17.40
2019-06-01T23:45:40.139Z,17.40
2019-06-01T23:48:08.737Z,17.40
2019-06-01T23:50:37.380Z,17.40
2019-06-01T23:53:13.597Z,17.30
2019-06-01T23:55:36.441Z,17.30
2019-06-01T23:58:05.032Z,17.20
